createdAt,value
2023-05-20T00:01:28.428Z,89.18
2023-05-20T00:04:31.033Z,88.68
2023-05-20T00:07:33.352Z,87.72
2023-05-20T00:10:36.381Z,89.26
2023-05-20T00:13:39.146Z,89.86
2023-05-20T00:16:41.795Z,90.03
2023-05-20T00:19:44.189Z,89.40
2023-05-20T00:22:46.701Z,87.83
2023-05-20T00:25:49.834Z,87.50
2023-05-20T00:28:52.256Z,88.96
2023-05-20T00:31:54.827Z,89.26
2023-05-20T00:35:01.291Z,89.96
2023-05-20T00:38:03.621Z,90.31
2023-05-20T00:41:06.013Z,91.76
2023-05-20T00:44:08.393Z,91.69
2023-05-20T00:47:10.823Z,91.90
2023-05-20T00:50:13.509Z,91.40
2023-05-20T00:53:21.486Z,91.22
2023-05-20T00:56:23.784Z,91.24
2023-05-20T00:59:27.004Z,90.92
2023-05-20T01:02:29.972Z,90.12
2023-05-20T01:05:32.514Z,89.98
2023-05-20T01:08:35.725Z,89.57
2023-05-20T01:11:45.323Z,89.94
2023-05-20T01:15:00.601Z,89.84
2023-05-20T01:18:10.673Z,89.44
2023-05-20T01:21:15.943Z,89.92
2023-05-20T01:24:18.266Z,90.24
2023-05-20T01:27:22.616Z,89.72
2023-05-20T01:30:36.023Z,89.32
2023-05-20T01:33:41.587Z,90.16
2023-05-20T01:36:46.518Z,90.53
2023-05-20T01:39:50.916Z,90.21
2023-05-20T01:42:56.232Z,90.66
2023-05-20T01:45:58.656Z,90.74
2023-05-20T01:49:01.178Z,90.66
2023-05-20T01:52:04.572Z,90.71
2023-05-20T01:55:07.198Z,90.88
2023-05-20T01:58:09.664Z,90.67
2023-05-20T02:01:12.252Z,90.71
2023-05-20T02:04:14.722Z,90.82
2023-05-20T02:07:18.924Z,91.58
2023-05-20T02:10:21.408Z,91.37
2023-05-20T02:13:23.728Z,91.97
2023-05-20T02:16:26.416Z,91.76
2023-05-20T02:19:28.976Z,91.46
2023-05-20T02:22:31.695Z,91.46
2023-05-20T02:25:34.504Z,91.95
2023-05-20T02:28:40.558Z,92.25
2023-05-20T02:31:43.057Z,92.43
2023-05-20T02:34:45.608Z,92.60
2023-05-20T02:37:48.383Z,92.65
2023-05-20T02:40:51.297Z,92.47
2023-05-20T02:43:54.262Z,92.30
2023-05-20T02:46:56.575Z,92.26
2023-05-20T02:49:58.971Z,92.24
2023-05-20T02:53:01.328Z,92.22
2023-05-20T02:56:04.694Z,92.73
2023-05-20T02:59:07.420Z,92.78
2023-05-20T03:02:09.893Z,93.34
2023-05-20T03:05:12.430Z,92.81
2023-05-20T03:08:15.079Z,92.41
2023-05-20T03:11:17.373Z,92.43
2023-05-20T03:14:19.732Z,91.92
2023-05-20T03:17:23.198Z,92.16
2023-05-20T03:20:27.092Z,92.11
2023-05-20T03:23:30.283Z,91.84
2023-05-20T03:26:33.909Z,91.57
2023-05-20T03:29:36.283Z,91.52
2023-05-20T03:32:38.771Z,91.50
2023-05-20T03:35:41.467Z,91.79
2023-05-20T03:38:43.782Z,91.72
2023-05-20T03:41:46.149Z,91.19
2023-05-20T03:44:48.745Z,91.48
2023-05-20T03:47:52.114Z,91.02
2023-05-20T03:50:55.444Z,91.19
2023-05-20T03:53:57.816Z,91.04
2023-05-20T03:57:03.047Z,90.99
2023-05-20T04:00:12.234Z,91.03
2023-05-20T04:03:18.558Z,90.92
2023-05-20T04:06:22.692Z,91.09
2023-05-20T04:09:26.238Z,91.39
2023-05-20T04:12:30.796Z,91.26
2023-05-20T04:15:36.240Z,90.51
2023-05-20T04:18:39.277Z,90.25
2023-05-20T04:21:43.281Z,89.86
2023-05-20T04:24:46.131Z,89.82
2023-05-20T04:27:49.746Z,89.24
2023-05-20T04:30:59.221Z,89.00
2023-05-20T04:34:02.766Z,89.15
2023-05-20T04:37:07.759Z,88.71
2023-05-20T04:40:12.609Z,88.57
2023-05-20T04:43:15.697Z,88.23
2023-05-20T04:46:18.011Z,88.37
2023-05-20T04:49:20.294Z,87.78
2023-05-20T04:52:24.397Z,86.97
2023-05-20T04:55:27.590Z,86.83
2023-05-20T04:58:31.705Z,84.63
2023-05-20T05:01:34.701Z,84.56
2023-05-20T05:04:37.057Z,84.71
2023-05-20T05:07:39.426Z,83.30
2023-05-20T05:10:41.770Z,80.93
2023-05-20T05:13:45.624Z,81.67
2023-05-20T05:16:47.967Z,78.29
2023-05-20T05:19:51.088Z,78.57
2023-05-20T05:22:53.449Z,73.86
2023-05-20T05:25:56.048Z,70.51
2023-05-20T05:28:58.558Z,66.41
2023-05-20T05:32:01.332Z,65.53
2023-05-20T05:35:06.675Z,63.04
2023-05-20T05:38:10.673Z,59.64
2023-05-20T05:41:13.013Z,58.06
2023-05-20T05:44:15.720Z,57.15
2023-05-20T05:47:19.147Z,52.77
2023-05-20T05:50:22.458Z,52.18
2023-05-20T05:53:24.751Z,51.04
2023-05-20T05:56:27.652Z,51.00
2023-05-20T05:59:31.337Z,51.12
2023-05-20T06:02:36.661Z,48.02
2023-05-20T06:05:39.225Z,49.84
2023-05-20T06:08:41.565Z,50.10
2023-05-20T06:11:44.695Z,49.02
2023-05-20T06:14:47.879Z,53.00
2023-05-20T06:17:50.720Z,50.33
2023-05-20T06:20:57.713Z,53.84
2023-05-20T06:24:00.868Z,51.34
2023-05-20T06:27:03.327Z,56.67
2023-05-20T06:30:06.422Z,50.39
2023-05-20T06:33:09.123Z,52.31
2023-05-20T06:36:12.521Z,51.96
2023-05-20T06:39:14.829Z,53.86
2023-05-20T06:42:21.221Z,52.32
2023-05-20T06:45:37.762Z,53.33
2023-05-20T06:48:56.798Z,51.06
2023-05-20T06:51:59.115Z,53.21
2023-05-20T06:55:01.561Z,50.31
2023-05-20T06:58:04.092Z,51.65
2023-05-20T07:01:06.823Z,50.81
2023-05-20T07:04:09.364Z,49.70
2023-05-20T07:07:12.332Z,51.44
2023-05-20T07:10:15.482Z,48.66
2023-05-20T07:13:18.340Z,50.64
2023-05-20T07:16:20.745Z,46.76
2023-05-20T07:19:28.845Z,47.45
2023-05-20T07:22:31.348Z,47.74
2023-05-20T07:25:57.205Z,46.13
2023-05-20T07:28:59.928Z,47.38
2023-05-20T07:32:03.168Z,44.77
2023-05-20T07:35:05.982Z,47.60
2023-05-20T07:38:08.465Z,45.83
2023-05-20T07:41:11.533Z,44.59
2023-05-20T07:44:13.926Z,47.09
2023-05-20T07:47:20.806Z,44.58
2023-05-20T07:50:23.389Z,42.69
2023-05-20T07:53:26.278Z,43.93
2023-05-20T07:56:28.942Z,43.41
2023-05-20T07:59:31.387Z,43.54
2023-05-20T08:02:34.964Z,41.59
2023-05-20T08:05:41.900Z,41.73
2023-05-20T08:08:44.304Z,39.50
2023-05-20T08:11:54.079Z,39.56
2023-05-20T08:14:56.526Z,39.19
2023-05-20T08:17:58.851Z,39.99
2023-05-20T08:21:02.033Z,39.23
2023-05-20T08:24:05.151Z,38.60
2023-05-20T08:27:08.548Z,38.02
2023-05-20T08:30:11.146Z,38.83
2023-05-20T08:33:13.970Z,37.29
2023-05-20T08:36:16.473Z,38.18
2023-05-20T08:39:19.549Z,37.69
2023-05-20T08:42:26.787Z,36.03
2023-05-20T08:45:37.272Z,36.80
2023-05-20T08:48:44.489Z,38.94
2023-05-20T08:51:47.429Z,38.73
2023-05-20T08:54:50.678Z,35.26
2023-05-20T08:57:54.759Z,34.97
2023-05-20T09:00:58.873Z,35.38
2023-05-20T09:04:01.273Z,34.84
2023-05-20T09:07:04.009Z,35.43
2023-05-20T09:10:06.879Z,35.79
2023-05-20T09:13:10.432Z,37.57
2023-05-20T09:16:13.575Z,38.71
2023-05-20T09:19:16.012Z,34.91
2023-05-20T09:22:26.061Z,34.67
2023-05-20T09:25:29.484Z,32.03
2023-05-20T09:28:31.929Z,31.59
2023-05-20T09:31:35.615Z,30.14
2023-05-20T09:34:38.595Z,29.03
2023-05-20T09:37:43.055Z,27.96
2023-05-20T09:40:47.160Z,27.22
2023-05-20T09:43:51.244Z,27.54
2023-05-20T09:46:54.420Z,27.54
2023-05-20T09:49:57.395Z,28.25
2023-05-20T09:53:03.712Z,28.89
2023-05-20T09:56:06.243Z,27.74
2023-05-20T09:59:10.648Z,27.45
2023-05-20T10:02:13.125Z,27.10
2023-05-20T10:05:25.924Z,25.97
2023-05-20T10:09:02.237Z,28.09
2023-05-20T10:12:42.802Z,27.79
2023-05-20T10:16:08.096Z,26.60
2023-05-20T10:19:30.985Z,26.43
2023-05-20T10:22:33.574Z,24.54
2023-05-20T10:25:36.106Z,24.59
2023-05-20T10:28:41.176Z,25.10
2023-05-20T10:31:51.542Z,24.60
2023-05-20T10:35:00.014Z,25.05
2023-05-20T10:38:11.002Z,24.21
2023-05-20T10:41:13.470Z,24.52
2023-05-20T10:44:15.768Z,25.19
2023-05-20T10:47:25.368Z,24.56
2023-05-20T10:50:36.488Z,25.51
2023-05-20T10:53:40.319Z,23.74
2023-05-20T10:56:52.692Z,23.27
2023-05-20T10:59:56.123Z,25.54
2023-05-20T11:02:58.674Z,25.84
2023-05-20T11:06:01.205Z,24.10
2023-05-20T11:09:08.305Z,25.06
2023-05-20T11:12:10.733Z,24.73
2023-05-20T11:15:13.340Z,25.04
2023-05-20T11:18:18.421Z,25.46
2023-05-20T11:21:21.201Z,26.04
2023-05-20T11:24:28.251Z,29.26
2023-05-20T11:27:30.438Z,29.65
2023-05-20T11:30:33.429Z,30.83
2023-05-20T11:33:36.385Z,32.79
2023-05-20T11:36:43.361Z,33.81
2023-05-20T11:39:46.164Z,31.98
2023-05-20T11:42:49.521Z,33.08
2023-05-20T11:45:59.885Z,31.61
2023-05-20T11:49:02.415Z,32.50
2023-05-20T11:52:04.902Z,30.76
2023-05-20T11:55:11.407Z,30.94
2023-05-20T11:58:17.193Z,32.12
2023-05-20T12:01:22.882Z,30.34
2023-05-20T12:04:25.722Z,27.75
2023-05-20T12:07:28.493Z,27.01
2023-05-20T12:10:31.247Z,27.08
2023-05-20T12:13:35.244Z,26.17
2023-05-20T12:16:38.536Z,27.52
2023-05-20T12:19:42.000Z,28.94
2023-05-20T12:22:45.858Z,30.12
2023-05-20T12:25:49.958Z,30.12
2023-05-20T12:28:52.842Z,30.17
2023-05-20T12:31:55.216Z,29.64
2023-05-20T12:35:00.197Z,31.47
2023-05-20T12:38:02.613Z,31.47
2023-05-20T12:41:04.914Z,31.47
2023-05-20T12:44:07.227Z,30.96
2023-05-20T12:47:09.862Z,31.26
2023-05-20T12:50:12.258Z,34.84
2023-05-20T12:53:14.604Z,33.71
2023-05-20T12:56:16.978Z,33.84
2023-05-20T12:59:19.275Z,36.13
2023-05-20T13:02:21.625Z,34.56
2023-05-20T13:05:24.056Z,36.92
2023-05-20T13:08:28.686Z,36.33
2023-05-20T13:11:31.286Z,40.42
2023-05-20T13:14:33.600Z,36.39
2023-05-20T13:17:36.058Z,38.86
2023-05-20T13:20:38.865Z,38.26
2023-05-20T13:23:41.733Z,37.98
2023-05-20T13:26:44.098Z,36.72
2023-05-20T13:29:46.437Z,36.41
2023-05-20T13:32:48.812Z,34.78
2023-05-20T13:35:51.692Z,35.19
2023-05-20T13:38:53.989Z,35.79
2023-05-20T13:41:56.487Z,36.25
2023-05-20T13:44:58.840Z,36.43
2023-05-20T13:48:01.166Z,35.97
2023-05-20T13:51:03.765Z,35.21
2023-05-20T13:54:06.675Z,38.14
2023-05-20T13:57:11.797Z,37.70
2023-05-20T14:00:15.803Z,39.34
2023-05-20T14:03:18.485Z,36.95
2023-05-20T14:06:21.009Z,35.69
2023-05-20T14:09:23.336Z,37.88
2023-05-20T14:12:25.776Z,36.48
2023-05-20T14:15:30.820Z,35.16
2023-05-20T14:18:33.183Z,37.23
2023-05-20T14:21:35.674Z,38.31
2023-05-20T14:24:38.009Z,35.45
2023-05-20T14:27:40.314Z,36.06
2023-05-20T14:30:42.639Z,36.38
2023-05-20T14:33:45.123Z,35.68
2023-05-20T14:36:47.782Z,35.41
2023-05-20T14:39:50.095Z,36.39
2023-05-20T14:42:52.430Z,40.18
2023-05-20T14:45:54.799Z,40.72
2023-05-20T14:48:57.125Z,38.10
2023-05-20T14:51:59.488Z,40.95
2023-05-20T14:55:01.769Z,37.75
2023-05-20T14:58:04.155Z,41.47
2023-05-20T15:01:06.489Z,39.39
2023-05-20T15:04:08.833Z,42.04
2023-05-20T15:07:11.158Z,41.70
2023-05-20T15:10:13.468Z,41.99
2023-05-20T15:13:15.820Z,40.67
2023-05-20T15:16:19.534Z,40.21
2023-05-20T15:19:22.204Z,40.85
2023-05-20T15:22:24.572Z,38.58
2023-05-20T15:25:26.882Z,40.23
2023-05-20T15:28:29.146Z,40.42
2023-05-20T15:31:31.477Z,38.73
2023-05-20T15:34:34.132Z,41.09
2023-05-20T15:37:36.474Z,38.88
2023-05-20T15:40:39.561Z,38.83
2023-05-20T15:43:42.345Z,38.13
2023-05-20T15:46:45.540Z,40.23
2023-05-20T15:49:47.869Z,41.38
2023-05-20T15:52:53.271Z,41.70
2023-05-20T15:55:55.680Z,41.54
2023-05-20T15:58:57.981Z,42.48
2023-05-20T16:02:00.738Z,44.07
2023-05-20T16:05:03.626Z,42.17
2023-05-20T16:08:06.363Z,44.40
2023-05-20T16:11:09.246Z,44.91
2023-05-20T16:14:11.984Z,44.53
2023-05-20T16:17:14.583Z,43.65
2023-05-20T16:20:16.860Z,43.46
2023-05-20T16:23:19.159Z,43.50
2023-05-20T16:26:21.473Z,43.22
2023-05-20T16:29:23.714Z,43.32
2023-05-20T16:32:27.104Z,46.93
2023-05-20T16:35:29.551Z,45.49
2023-05-20T16:38:32.616Z,44.78
2023-05-20T16:41:35.044Z,46.03
2023-05-20T16:44:39.168Z,43.21
2023-05-20T16:47:41.654Z,45.06
2023-05-20T16:50:43.957Z,44.66
2023-05-20T16:53:46.338Z,45.75
2023-05-20T16:56:48.657Z,47.58
2023-05-20T16:59:51.031Z,47.36
2023-05-20T17:02:53.355Z,45.73
2023-05-20T17:05:55.983Z,47.52
2023-05-20T17:08:59.648Z,47.21
2023-05-20T17:12:02.797Z,47.01
2023-05-20T17:15:06.165Z,48.95
2023-05-20T17:18:08.629Z,49.31
2023-05-20T17:21:10.928Z,48.67
2023-05-20T17:24:13.242Z,48.81
2023-05-20T17:27:15.519Z,49.56
2023-05-20T17:30:17.851Z,51.80
2023-05-20T17:33:20.492Z,49.73
2023-05-20T17:36:23.102Z,49.16
2023-05-20T17:39:25.648Z,50.21
2023-05-20T17:42:27.915Z,53.70
2023-05-20T17:45:30.211Z,52.03
2023-05-20T17:48:33.042Z,55.04
2023-05-20T17:51:35.543Z,53.30
2023-05-20T17:54:37.819Z,55.02
2023-05-20T17:57:40.098Z,56.26
2023-05-20T18:00:42.825Z,54.91
2023-05-20T18:03:45.247Z,55.78
2023-05-20T18:06:47.520Z,55.56
2023-05-20T18:09:49.934Z,57.36
2023-05-20T18:12:52.330Z,57.48
2023-05-20T18:15:54.687Z,57.58
2023-05-20T18:18:57.905Z,56.92
2023-05-20T18:22:01.192Z,56.76
2023-05-20T18:25:03.797Z,58.77
2023-05-20T18:28:06.170Z,60.22
2023-05-20T18:31:09.899Z,58.13
2023-05-20T18:34:12.257Z,60.06
2023-05-20T18:37:14.610Z,59.01
2023-05-20T18:40:17.132Z,59.27
2023-05-20T18:43:19.630Z,59.34
2023-05-20T18:46:21.988Z,59.13
2023-05-20T18:49:24.384Z,59.06
2023-05-20T18:52:26.877Z,61.07
2023-05-20T18:55:29.276Z,60.76
2023-05-20T18:58:31.780Z,60.32
2023-05-20T19:01:36.627Z,60.01
2023-05-20T19:04:39.367Z,62.43
2023-05-20T19:07:41.969Z,61.01
2023-05-20T19:10:44.276Z,62.19
2023-05-20T19:13:46.700Z,61.56
2023-05-20T19:16:49.394Z,61.91
2023-05-20T19:19:55.721Z,61.30
2023-05-20T19:22:59.927Z,63.24
2023-05-20T19:26:02.534Z,62.04
2023-05-20T19:29:07.210Z,61.59
2023-05-20T19:32:10.265Z,61.96
2023-05-20T19:35:13.724Z,61.86
2023-05-20T19:38:25.106Z,62.04
2023-05-20T19:41:28.745Z,62.50
2023-05-20T19:44:38.065Z,63.08
2023-05-20T19:47:48.595Z,63.61
2023-05-20T19:50:56.156Z,63.55
2023-05-20T19:53:58.593Z,63.42
2023-05-20T19:57:06.226Z,63.85
2023-05-20T20:00:11.352Z,64.44
2023-05-20T20:03:30.715Z,63.87
2023-05-20T20:06:33.252Z,64.78
2023-05-20T20:09:40.204Z,66.41
2023-05-20T20:12:44.384Z,68.23
2023-05-20T20:16:01.703Z,69.67
2023-05-20T20:19:08.412Z,70.52
2023-05-20T20:22:18.303Z,71.00
2023-05-20T20:25:36.861Z,70.83
2023-05-20T20:28:43.631Z,68.61
2023-05-20T20:31:46.586Z,66.76
2023-05-20T20:34:48.882Z,65.70
2023-05-20T20:38:03.862Z,66.00
2023-05-20T20:41:09.631Z,65.63
2023-05-20T20:44:17.282Z,66.11
2023-05-20T20:47:22.302Z,65.36
2023-05-20T20:50:36.440Z,65.05
2023-05-20T20:53:46.050Z,65.03
2023-05-20T20:56:53.832Z,65.98
2023-05-20T20:59:57.871Z,65.19
2023-05-20T21:03:00.202Z,66.19
2023-05-20T21:06:03.368Z,65.24
2023-05-20T21:09:05.839Z,65.40
2023-05-20T21:12:08.134Z,65.07
2023-05-20T21:15:12.551Z,66.17
2023-05-20T21:18:21.620Z,66.11
2023-05-20T21:21:23.930Z,65.77
2023-05-20T21:24:26.205Z,65.05
2023-05-20T21:27:28.484Z,66.15
2023-05-20T21:30:31.063Z,66.07
2023-05-20T21:33:33.367Z,67.54
2023-05-20T21:36:36.333Z,68.00
2023-05-20T21:39:38.926Z,68.51
2023-05-20T21:42:41.619Z,68.09
2023-05-20T21:45:43.946Z,69.04
2023-05-20T21:48:46.246Z,68.84
2023-05-20T21:51:48.700Z,68.93
2023-05-20T21:54:51.701Z,68.29
2023-05-20T21:57:53.973Z,68.26
2023-05-20T22:00:56.546Z,69.90
2023-05-20T22:03:59.470Z,72.09
2023-05-20T22:07:01.977Z,70.05
2023-05-20T22:10:04.996Z,70.77
2023-05-20T22:13:07.283Z,68.29
2023-05-20T22:16:09.966Z,68.96
2023-05-20T22:19:16.367Z,69.34
2023-05-20T22:22:19.335Z,68.84
2023-05-20T22:25:22.694Z,69.14
2023-05-20T22:28:35.141Z,68.68
2023-05-20T22:31:38.113Z,68.72
2023-05-20T22:34:40.641Z,68.66
2023-05-20T22:37:43.319Z,69.95
2023-05-20T22:40:46.023Z,68.98
2023-05-20T22:43:48.863Z,69.86
2023-05-20T22:46:51.152Z,72.49
2023-05-20T22:49:53.948Z,74.15
2023-05-20T22:52:56.348Z,71.10
2023-05-20T22:56:00.070Z,72.26
2023-05-20T22:59:03.266Z,71.14
2023-05-20T23:02:06.257Z,73.09
2023-05-20T23:05:08.864Z,73.54
2023-05-20T23:08:11.144Z,71.36
2023-05-20T23:11:13.480Z,72.34
2023-05-20T23:14:15.917Z,72.83
2023-05-20T23:17:18.205Z,72.25
2023-05-20T23:20:23.027Z,72.12
2023-05-20T23:23:31.247Z,72.24
2023-05-20T23:26:34.584Z,72.22
2023-05-20T23:29:36.935Z,73.81
2023-05-20T23:32:39.295Z,72.49
2023-05-20T23:35:44.076Z,74.51
2023-05-20T23:38:46.395Z,72.88
2023-05-20T23:41:48.966Z,72.85
2023-05-20T23:44:51.535Z,74.79
2023-05-20T23:47:55.547Z,75.06
2023-05-20T23:50:57.958Z,76.24
2023-05-20T23:54:00.254Z,77.46
2023-05-20T23:57:02.666Z,77.09
